Aviation Digital Data Service (ADDS)

Output produced by METARs form (0528 UTC 22 November 2017)
found at http://bcaws.aviationweather.gov/adds/metars/
 
METAR text: KSQL 220515Z AUTO 00000KT 10SM CLR 15/13 A3015 RMK AO2
Conditions at: KSQL (SAN CARLOS AIRPO, CA, US) observed 0515 UTC 22 November 2017
Temperature: 15.0°C (59°F)
Dewpoint: 13.0°C (55°F) [RH = 88%]
Pressure (altimeter): 30.15 inches Hg (1021.1 mb)
Winds: calm
Visibility: 10 or more miles (16+ km)
Ceiling: at least 12,000 feet AGL
Clouds: sky clear below 12,000 feet AGL
Weather: automated observation with no human augmentation;
there may or may not be significant weather present at this time